sensor_id;sensor_type;location;lat;lon;timestamp;pressure;altitude;pressure_sealevel;temperature
78905;BMP280;68291;49.602;8.722;2023-07-20T00:02:06;99299.88;;;23.44
78905;BMP280;68291;49.602;8.722;2023-07-20T00:04:38;99285.72;;;23.37
78905;BMP280;68291;49.602;8.722;2023-07-20T00:07:16;99293.22;;;23.32
78905;BMP280;68291;49.602;8.722;2023-07-20T00:09:53;99289.94;;;23.30
78905;BMP280;68291;49.602;8.722;2023-07-20T00:12:37;99284.97;;;23.27
78905;BMP280;68291;49.602;8.722;2023-07-20T00:15:12;99299.09;;;23.26
78905;BMP280;68291;49.602;8.722;2023-07-20T00:17:51;99298.13;;;23.27
78905;BMP280;68291;49.602;8.722;2023-07-20T00:20:29;99301.34;;;23.21
78905;BMP280;68291;49.602;8.722;2023-07-20T00:23:24;99304.16;;;23.20
78905;BMP280;68291;49.602;8.722;2023-07-20T00:26:25;99291.47;;;23.15
78905;BMP280;68291;49.602;8.722;2023-07-20T00:29:15;99299.34;;;23.15
78905;BMP280;68291;49.602;8.722;2023-07-20T00:31:59;99299.19;;;23.17
78905;BMP280;68291;49.602;8.722;2023-07-20T00:34:58;99298.88;;;23.20
78905;BMP280;68291;49.602;8.722;2023-07-20T00:37:32;99302.19;;;23.22
78905;BMP280;68291;49.602;8.722;2023-07-20T00:40:14;99294.31;;;23.22
78905;BMP280;68291;49.602;8.722;2023-07-20T00:42:49;99303.28;;;23.19
78905;BMP280;68291;49.602;8.722;2023-07-20T00:45:26;99296.72;;;23.15
78905;BMP280;68291;49.602;8.722;2023-07-20T00:48:02;99299.63;;;23.12
78905;BMP280;68291;49.602;8.722;2023-07-20T00:51:00;99303.19;;;23.03
78905;BMP280;68291;49.602;8.722;2023-07-20T00:53:49;99304.63;;;22.98
78905;BMP280;68291;49.602;8.722;2023-07-20T00:56:47;99315.28;;;22.97
78905;BMP280;68291;49.602;8.722;2023-07-20T00:59:38;99309.78;;;22.90
78905;BMP280;68291;49.602;8.722;2023-07-20T01:02:14;99306.63;;;22.87
78905;BMP280;68291;49.602;8.722;2023-07-20T01:04:48;99308.66;;;22.93
78905;BMP280;68291;49.602;8.722;2023-07-20T01:07:38;99320.31;;;22.90
78905;BMP280;68291;49.602;8.722;2023-07-20T01:10:19;99322.25;;;22.88
78905;BMP280;68291;49.602;8.722;2023-07-20T01:12:55;99312.75;;;22.87
78905;BMP280;68291;49.602;8.722;2023-07-20T01:15:50;99313.00;;;22.84
78905;BMP280;68291;49.602;8.722;2023-07-20T01:18:23;99312.75;;;22.78
78905;BMP280;68291;49.602;8.722;2023-07-20T01:21:37;99309.22;;;22.69
78905;BMP280;68291;49.602;8.722;2023-07-20T01:24:48;99314.25;;;22.63
78905;BMP280;68291;49.602;8.722;2023-07-20T01:28:26;99313.41;;;22.45
78905;BMP280;68291;49.602;8.722;2023-07-20T01:31:24;99311.66;;;22.36
78905;BMP280;68291;49.602;8.722;2023-07-20T01:33:58;99317.50;;;22.31
78905;BMP280;68291;49.602;8.722;2023-07-20T01:36:44;99310.50;;;22.22
78905;BMP280;68291;49.602;8.722;2023-07-20T01:39:41;99309.63;;;22.04
78905;BMP280;68291;49.602;8.722;2023-07-20T01:42:28;99316.59;;;21.86
78905;BMP280;68291;49.602;8.722;2023-07-20T01:44:59;99316.09;;;21.73
78905;BMP280;68291;49.602;8.722;2023-07-20T01:47:56;99314.91;;;21.59
78905;BMP280;68291;49.602;8.722;2023-07-20T01:50:33;99315.31;;;21.45
78905;BMP280;68291;49.602;8.722;2023-07-20T01:53:34;99322.91;;;21.29
78905;BMP280;68291;49.602;8.722;2023-07-20T01:56:08;99313.28;;;21.20
78905;BMP280;68291;49.602;8.722;2023-07-20T01:58:40;99315.78;;;21.12
78905;BMP280;68291;49.602;8.722;2023-07-20T02:01:25;99319.78;;;20.97
78905;BMP280;68291;49.602;8.722;2023-07-20T02:04:29;99312.34;;;20.84
78905;BMP280;68291;49.602;8.722;2023-07-20T02:07:03;99315.78;;;20.75
78905;BMP280;68291;49.602;8.722;2023-07-20T02:09:53;99315.22;;;20.62
78905;BMP280;68291;49.602;8.722;2023-07-20T02:12:48;99323.69;;;20.55
78905;BMP280;68291;49.602;8.722;2023-07-20T02:15:34;99326.44;;;20.44
78905;BMP280;68291;49.602;8.722;2023-07-20T02:18:16;99310.75;;;20.34
78905;BMP280;68291;49.602;8.722;2023-07-20T02:20:58;99314.97;;;20.26
78905;BMP280;68291;49.602;8.722;2023-07-20T02:23:40;99313.56;;;20.13
78905;BMP280;68291;49.602;8.722;2023-07-20T02:26:25;99326.75;;;20.02
78905;BMP280;68291;49.602;8.722;2023-07-20T02:28:59;99319.69;;;19.93
78905;BMP280;68291;49.602;8.722;2023-07-20T02:31:36;99314.28;;;19.85
78905;BMP280;68291;49.602;8.722;2023-07-20T02:34:08;99313.38;;;19.75
78905;BMP280;68291;49.602;8.722;2023-07-20T02:37:13;99328.75;;;19.69
78905;BMP280;68291;49.602;8.722;2023-07-20T02:39:44;99330.34;;;19.60
78905;BMP280;68291;49.602;8.722;2023-07-20T02:42:30;99315.47;;;19.52
78905;BMP280;68291;49.602;8.722;2023-07-20T02:45:21;99330.56;;;19.48
78905;BMP280;68291;49.602;8.722;2023-07-20T02:48:11;99330.25;;;19.42
78905;BMP280;68291;49.602;8.722;2023-07-20T02:51:08;99334.78;;;19.40
78905;BMP280;68291;49.602;8.722;2023-07-20T02:54:01;99333.13;;;19.39
78905;BMP280;68291;49.602;8.722;2023-07-20T02:56:56;99336.69;;;19.38
78905;BMP280;68291;49.602;8.722;2023-07-20T02:59:40;99341.22;;;19.36
78905;BMP280;68291;49.602;8.722;2023-07-20T03:02:17;99341.47;;;19.33
78905;BMP280;68291;49.602;8.722;2023-07-20T03:04:51;99348.13;;;19.26
78905;BMP280;68291;49.602;8.722;2023-07-20T03:07:31;99340.25;;;19.17
78905;BMP280;68291;49.602;8.722;2023-07-20T03:10:30;99348.41;;;19.03
78905;BMP280;68291;49.602;8.722;2023-07-20T03:13:25;99352.94;;;18.90
78905;BMP280;68291;49.602;8.722;2023-07-20T03:16:25;99357.66;;;18.85
78905;BMP280;68291;49.602;8.722;2023-07-20T03:19:22;99332.38;;;18.65
78905;BMP280;68291;49.602;8.722;2023-07-20T03:22:07;99349.69;;;18.66
78905;BMP280;68291;49.602;8.722;2023-07-20T03:24:40;99343.44;;;18.58
78905;BMP280;68291;49.602;8.722;2023-07-20T03:27:17;99345.69;;;18.52
78905;BMP280;68291;49.602;8.722;2023-07-20T03:30:04;99349.72;;;18.45
78905;BMP280;68291;49.602;8.722;2023-07-20T03:32:37;99348.91;;;18.44
78905;BMP280;68291;49.602;8.722;2023-07-20T03:35:22;99353.53;;;18.41
78905;BMP280;68291;49.602;8.722;2023-07-20T03:37:54;99358.16;;;18.37
78905;BMP280;68291;49.602;8.722;2023-07-20T03:40:52;99357.22;;;18.27
78905;BMP280;68291;49.602;8.722;2023-07-20T03:43:54;99352.97;;;18.16
78905;BMP280;68291;49.602;8.722;2023-07-20T03:46:46;99365.78;;;18.08
78905;BMP280;68291;49.602;8.722;2023-07-20T03:49:22;99363.63;;;18.02
78905;BMP280;68291;49.602;8.722;2023-07-20T03:52:18;99355.31;;;17.97
78905;BMP280;68291;49.602;8.722;2023-07-20T03:55:04;99362.41;;;17.95
78905;BMP280;68291;49.602;8.722;2023-07-20T03:57:43;99358.19;;;17.94
78905;BMP280;68291;49.602;8.722;2023-07-20T04:00:20;99349.19;;;17.87
78905;BMP280;68291;49.602;8.722;2023-07-20T04:03:00;99362.66;;;17.92
78905;BMP280;68291;49.602;8.722;2023-07-20T04:05:34;99352.13;;;17.93
78905;BMP280;68291;49.602;8.722;2023-07-20T04:08:05;99367.16;;;18.01
78905;BMP280;68291;49.602;8.722;2023-07-20T04:10:38;99368.59;;;18.05
78905;BMP280;68291;49.602;8.722;2023-07-20T04:13:18;99366.38;;;18.11
78905;BMP280;68291;49.602;8.722;2023-07-20T04:16:48;99371.84;;;18.08
78905;BMP280;68291;49.602;8.722;2023-07-20T04:19:27;99376.91;;;18.10
78905;BMP280;68291;49.602;8.722;2023-07-20T04:22:07;99369.91;;;18.10
78905;BMP280;68291;49.602;8.722;2023-07-20T04:24:58;99374.31;;;18.10
78905;BMP280;68291;49.602;8.722;2023-07-20T04:27:42;99381.19;;;18.11
78905;BMP280;68291;49.602;8.722;2023-07-20T04:30:13;99384.50;;;18.13
78905;BMP280;68291;49.602;8.722;2023-07-20T04:33:04;99384.38;;;18.14
78905;BMP280;68291;49.602;8.722;2023-07-20T04:35:49;99381.66;;;18.16
78905;BMP280;68291;49.602;8.722;2023-07-20T04:38:26;99382.47;;;18.16
78905;BMP280;68291;49.602;8.722;2023-07-20T04:41:12;99382.38;;;18.17
78905;BMP280;68291;49.602;8.722;2023-07-20T04:44:04;99388.28;;;18.19
78905;BMP280;68291;49.602;8.722;2023-07-20T04:46:38;99386.13;;;18.24
78905;BMP280;68291;49.602;8.722;2023-07-20T04:49:19;99396.09;;;18.41
78905;BMP280;68291;49.602;8.722;2023-07-20T04:51:56;99386.34;;;18.54
78905;BMP280;68291;49.602;8.722;2023-07-20T04:54:49;99387.59;;;18.70
78905;BMP280;68291;49.602;8.722;2023-07-20T04:57:48;99388.59;;;18.89
78905;BMP280;68291;49.602;8.722;2023-07-20T05:00:37;99382.88;;;19.06
78905;BMP280;68291;49.602;8.722;2023-07-20T05:03:18;99368.09;;;19.27
78905;BMP280;68291;49.602;8.722;2023-07-20T05:05:52;99374.28;;;19.46
78905;BMP280;68291;49.602;8.722;2023-07-20T05:08:36;99378.78;;;19.64
78905;BMP280;68291;49.602;8.722;2023-07-20T05:11:15;99372.88;;;19.83
78905;BMP280;68291;49.602;8.722;2023-07-20T05:14:05;99373.09;;;20.00
78905;BMP280;68291;49.602;8.722;2023-07-20T05:16:56;99372.34;;;20.18
78905;BMP280;68291;49.602;8.722;2023-07-20T05:19:36;99368.69;;;20.30
78905;BMP280;68291;49.602;8.722;2023-07-20T05:22:32;99358.13;;;20.50
78905;BMP280;68291;49.602;8.722;2023-07-20T05:25:26;99357.50;;;20.67
78905;BMP280;68291;49.602;8.722;2023-07-20T05:28:03;99367.44;;;20.82
78905;BMP280;68291;49.602;8.722;2023-07-20T05:30:52;99373.22;;;20.95
78905;BMP280;68291;49.602;8.722;2023-07-20T05:33:40;99361.13;;;21.03
78905;BMP280;68291;49.602;8.722;2023-07-20T05:36:30;99358.34;;;21.14
78905;BMP280;68291;49.602;8.722;2023-07-20T05:39:23;99362.63;;;21.25
78905;BMP280;68291;49.602;8.722;2023-07-20T05:41:57;99360.53;;;21.28
78905;BMP280;68291;49.602;8.722;2023-07-20T05:44:54;99364.13;;;21.36
78905;BMP280;68291;49.602;8.722;2023-07-20T05:47:43;99356.69;;;21.51
78905;BMP280;68291;49.602;8.722;2023-07-20T05:50:32;99360.53;;;21.65
78905;BMP280;68291;49.602;8.722;2023-07-20T05:53:13;99356.38;;;21.72
78905;BMP280;68291;49.602;8.722;2023-07-20T05:55:53;99362.41;;;21.82
78905;BMP280;68291;49.602;8.722;2023-07-20T05:58:26;99359.88;;;21.90
78905;BMP280;68291;49.602;8.722;2023-07-20T06:01:12;99368.56;;;22.00
78905;BMP280;68291;49.602;8.722;2023-07-20T06:03:46;99370.31;;;22.09
78905;BMP280;68291;49.602;8.722;2023-07-20T06:06:25;99365.72;;;22.20
78905;BMP280;68291;49.602;8.722;2023-07-20T06:08:58;99364.72;;;22.31
78905;BMP280;68291;49.602;8.722;2023-07-20T06:11:41;99367.00;;;22.43
78905;BMP280;68291;49.602;8.722;2023-07-20T06:14:12;99363.88;;;22.57
78905;BMP280;68291;49.602;8.722;2023-07-20T06:16:47;99362.84;;;22.67
78905;BMP280;68291;49.602;8.722;2023-07-20T06:19:22;99370.59;;;22.68
78905;BMP280;68291;49.602;8.722;2023-07-20T06:21:53;99368.78;;;22.69
78905;BMP280;68291;49.602;8.722;2023-07-20T06:24:31;99366.16;;;22.69
78905;BMP280;68291;49.602;8.722;2023-07-20T06:27:19;99370.06;;;22.65
78905;BMP280;68291;49.602;8.722;2023-07-20T06:29:58;99361.50;;;22.63
78905;BMP280;68291;49.602;8.722;2023-07-20T06:32:38;99362.63;;;22.61
78905;BMP280;68291;49.602;8.722;2023-07-20T06:35:18;99365.38;;;22.59
78905;BMP280;68291;49.602;8.722;2023-07-20T06:38:00;99364.88;;;22.56
78905;BMP280;68291;49.602;8.722;2023-07-20T06:40:41;99362.38;;;22.54
78905;BMP280;68291;49.602;8.722;2023-07-20T06:43:17;99368.69;;;22.61
78905;BMP280;68291;49.602;8.722;2023-07-20T06:46:10;99367.97;;;22.68
78905;BMP280;68291;49.602;8.722;2023-07-20T06:48:42;99364.59;;;22.76
78905;BMP280;68291;49.602;8.722;2023-07-20T06:51:21;99368.84;;;22.86
78905;BMP280;68291;49.602;8.722;2023-07-20T06:53:56;99372.38;;;22.95
78905;BMP280;68291;49.602;8.722;2023-07-20T06:56:28;99366.66;;;22.99
78905;BMP280;68291;49.602;8.722;2023-07-20T06:59:13;99370.50;;;23.04
78905;BMP280;68291;49.602;8.722;2023-07-20T07:02:11;99367.56;;;23.07
78905;BMP280;68291;49.602;8.722;2023-07-20T07:04:42;99361.56;;;23.15
78905;BMP280;68291;49.602;8.722;2023-07-20T07:07:15;99370.31;;;23.23
78905;BMP280;68291;49.602;8.722;2023-07-20T07:10:00;99379.47;;;23.19
78905;BMP280;68291;49.602;8.722;2023-07-20T07:12:40;99370.28;;;23.15
78905;BMP280;68291;49.602;8.722;2023-07-20T07:15:14;99371.41;;;23.13
78905;BMP280;68291;49.602;8.722;2023-07-20T07:17:46;99372.81;;;23.07
78905;BMP280;68291;49.602;8.722;2023-07-20T07:20:18;99381.47;;;23.00
78905;BMP280;68291;49.602;8.722;2023-07-20T07:22:52;99380.25;;;22.95
78905;BMP280;68291;49.602;8.722;2023-07-20T07:25:32;99374.00;;;22.96
78905;BMP280;68291;49.602;8.722;2023-07-20T07:28:07;99371.78;;;23.01
78905;BMP280;68291;49.602;8.722;2023-07-20T07:30:41;99370.97;;;23.00
78905;BMP280;68291;49.602;8.722;2023-07-20T07:33:15;99377.63;;;22.95
78905;BMP280;68291;49.602;8.722;2023-07-20T07:35:47;99383.19;;;22.92
78905;BMP280;68291;49.602;8.722;2023-07-20T07:38:24;99374.31;;;22.93
78905;BMP280;68291;49.602;8.722;2023-07-20T07:41:03;99380.63;;;23.00
78905;BMP280;68291;49.602;8.722;2023-07-20T07:43:34;99384.47;;;23.05
78905;BMP280;68291;49.602;8.722;2023-07-20T07:46:14;99377.75;;;23.10
78905;BMP280;68291;49.602;8.722;2023-07-20T07:48:52;99388.28;;;23.10
78905;BMP280;68291;49.602;8.722;2023-07-20T07:51:35;99371.84;;;23.08
78905;BMP280;68291;49.602;8.722;2023-07-20T07:54:13;99372.28;;;23.21
78905;BMP280;68291;49.602;8.722;2023-07-20T07:57:08;99373.72;;;23.33
78905;BMP280;68291;49.602;8.722;2023-07-20T08:00:03;99372.91;;;23.33
78905;BMP280;68291;49.602;8.722;2023-07-20T08:02:49;99381.81;;;23.39
78905;BMP280;68291;49.602;8.722;2023-07-20T08:05:26;99374.97;;;23.46
78905;BMP280;68291;49.602;8.722;2023-07-20T08:08:06;99381.50;;;23.60
78905;BMP280;68291;49.602;8.722;2023-07-20T08:10:56;99376.66;;;23.72
78905;BMP280;68291;49.602;8.722;2023-07-20T08:13:27;99381.63;;;23.75
78905;BMP280;68291;49.602;8.722;2023-07-20T08:15:59;99372.53;;;23.70
78905;BMP280;68291;49.602;8.722;2023-07-20T08:19:20;99386.56;;;23.78
78905;BMP280;68291;49.602;8.722;2023-07-20T08:22:10;99380.09;;;23.90
78905;BMP280;68291;49.602;8.722;2023-07-20T08:24:42;99377.47;;;23.98
78905;BMP280;68291;49.602;8.722;2023-07-20T08:27:32;99378.22;;;24.08
78905;BMP280;68291;49.602;8.722;2023-07-20T08:30:23;99370.03;;;24.19
78905;BMP280;68291;49.602;8.722;2023-07-20T08:33:01;99378.09;;;24.17
78905;BMP280;68291;49.602;8.722;2023-07-20T08:35:43;99388.13;;;24.14
78905;BMP280;68291;49.602;8.722;2023-07-20T08:38:14;99379.91;;;24.17
78905;BMP280;68291;49.602;8.722;2023-07-20T08:40:58;99387.47;;;24.20
78905;BMP280;68291;49.602;8.722;2023-07-20T08:44:07;99389.28;;;24.19
78905;BMP280;68291;49.602;8.722;2023-07-20T08:46:54;99391.09;;;24.19
78905;BMP280;68291;49.602;8.722;2023-07-20T08:49:31;99381.63;;;24.26
78905;BMP280;68291;49.602;8.722;2023-07-20T08:52:23;99383.16;;;24.36
78905;BMP280;68291;49.602;8.722;2023-07-20T08:55:07;99386.47;;;24.46
78905;BMP280;68291;49.602;8.722;2023-07-20T08:57:48;99381.25;;;24.54
78905;BMP280;68291;49.602;8.722;2023-07-20T09:00:42;99376.78;;;24.54
78905;BMP280;68291;49.602;8.722;2023-07-20T09:03:24;99387.31;;;24.54
78905;BMP280;68291;49.602;8.722;2023-07-20T09:06:05;99378.31;;;24.57
78905;BMP280;68291;49.602;8.722;2023-07-20T09:09:31;99379.78;;;24.59
78905;BMP280;68291;49.602;8.722;2023-07-20T09:12:15;99370.09;;;24.68
78905;BMP280;68291;49.602;8.722;2023-07-20T09:14:58;99372.59;;;24.77
78905;BMP280;68291;49.602;8.722;2023-07-20T09:17:36;99369.31;;;24.83
78905;BMP280;68291;49.602;8.722;2023-07-20T09:20:10;99377.22;;;24.83
78905;BMP280;68291;49.602;8.722;2023-07-20T09:22:43;99374.88;;;24.80
78905;BMP280;68291;49.602;8.722;2023-07-20T09:25:40;99366.50;;;24.76
78905;BMP280;68291;49.602;8.722;2023-07-20T09:28:41;99369.66;;;24.88
78905;BMP280;68291;49.602;8.722;2023-07-20T09:31:23;99372.34;;;25.04
78905;BMP280;68291;49.602;8.722;2023-07-20T09:34:13;99364.13;;;25.22
78905;BMP280;68291;49.602;8.722;2023-07-20T09:37:04;99368.72;;;25.36
78905;BMP280;68291;49.602;8.722;2023-07-20T09:40:08;99360.84;;;25.52
78905;BMP280;68291;49.602;8.722;2023-07-20T09:43:19;99352.59;;;25.63
78905;BMP280;68291;49.602;8.722;2023-07-20T09:45:59;99362.66;;;25.67
78905;BMP280;68291;49.602;8.722;2023-07-20T09:48:32;99362.81;;;25.81
78905;BMP280;68291;49.602;8.722;2023-07-20T09:51:24;99363.78;;;25.88
78905;BMP280;68291;49.602;8.722;2023-07-20T09:53:58;99369.53;;;25.92
78905;BMP280;68291;49.602;8.722;2023-07-20T09:56:33;99363.56;;;25.98
78905;BMP280;68291;49.602;8.722;2023-07-20T09:59:49;99364.09;;;25.93
78905;BMP280;68291;49.602;8.722;2023-07-20T10:02:42;99353.22;;;25.80
78905;BMP280;68291;49.602;8.722;2023-07-20T10:05:33;99366.06;;;25.83
78905;BMP280;68291;49.602;8.722;2023-07-20T10:08:12;99358.66;;;25.95
78905;BMP280;68291;49.602;8.722;2023-07-20T10:11:02;99348.91;;;25.95
78905;BMP280;68291;49.602;8.722;2023-07-20T10:13:39;99356.47;;;26.06
78905;BMP280;68291;49.602;8.722;2023-07-20T10:16:29;99356.09;;;26.25
78905;BMP280;68291;49.602;8.722;2023-07-20T10:19:16;99344.16;;;26.37
78905;BMP280;68291;49.602;8.722;2023-07-20T10:22:17;99350.41;;;26.44
78905;BMP280;68291;49.602;8.722;2023-07-20T10:25:13;99346.13;;;26.43
78905;BMP280;68291;49.602;8.722;2023-07-20T10:27:46;99344.16;;;26.37
78905;BMP280;68291;49.602;8.722;2023-07-20T10:30:21;99340.41;;;26.31
78905;BMP280;68291;49.602;8.722;2023-07-20T10:33:18;99328.94;;;26.47
78905;BMP280;68291;49.602;8.722;2023-07-20T10:36:04;99338.88;;;26.67
78905;BMP280;68291;49.602;8.722;2023-07-20T10:38:56;99321.81;;;26.85
78905;BMP280;68291;49.602;8.722;2023-07-20T10:42:00;99318.09;;;26.94
78905;BMP280;68291;49.602;8.722;2023-07-20T10:44:39;99319.41;;;26.98
78905;BMP280;68291;49.602;8.722;2023-07-20T10:47:46;99323.03;;;26.97
78905;BMP280;68291;49.602;8.722;2023-07-20T10:51:13;99308.84;;;26.98
78905;BMP280;68291;49.602;8.722;2023-07-20T10:54:46;99310.47;;;26.99
78905;BMP280;68291;49.602;8.722;2023-07-20T10:57:38;99307.94;;;27.05
78905;BMP280;68291;49.602;8.722;2023-07-20T11:00:25;99298.72;;;27.23
78905;BMP280;68291;49.602;8.722;2023-07-20T11:03:04;99312.56;;;27.25
78905;BMP280;68291;49.602;8.722;2023-07-20T11:05:49;99304.66;;;27.25
78905;BMP280;68291;49.602;8.722;2023-07-20T11:08:45;99304.94;;;27.30
78905;BMP280;68291;49.602;8.722;2023-07-20T11:11:38;99293.97;;;27.55
78905;BMP280;68291;49.602;8.722;2023-07-20T11:14:21;99296.38;;;27.79
78905;BMP280;68291;49.602;8.722;2023-07-20T11:17:11;99300.34;;;27.89
78905;BMP280;68291;49.602;8.722;2023-07-20T11:19:56;99306.09;;;27.79
78905;BMP280;68291;49.602;8.722;2023-07-20T11:22:49;99304.66;;;27.62
78905;BMP280;68291;49.602;8.722;2023-07-20T11:25:59;99299.38;;;27.62
78905;BMP280;68291;49.602;8.722;2023-07-20T11:28:35;99286.75;;;27.78
78905;BMP280;68291;49.602;8.722;2023-07-20T11:31:18;99292.16;;;27.85
78905;BMP280;68291;49.602;8.722;2023-07-20T11:34:09;99281.88;;;28.04
78905;BMP280;68291;49.602;8.722;2023-07-20T11:36:58;99285.94;;;28.35
78905;BMP280;68291;49.602;8.722;2023-07-20T11:39:45;99274.41;;;28.57
78905;BMP280;68291;49.602;8.722;2023-07-20T11:42:37;99273.75;;;28.75
78905;BMP280;68291;49.602;8.722;2023-07-20T11:45:33;99281.84;;;28.67
78905;BMP280;68291;49.602;8.722;2023-07-20T11:48:14;99276.91;;;28.64
78905;BMP280;68291;49.602;8.722;2023-07-20T11:51:04;99281.78;;;28.47
78905;BMP280;68291;49.602;8.722;2023-07-20T11:53:38;99274.78;;;28.39
78905;BMP280;68291;49.602;8.722;2023-07-20T11:56:34;99273.22;;;28.45
78905;BMP280;68291;49.602;8.722;2023-07-20T11:59:57;99264.13;;;28.54
78905;BMP280;68291;49.602;8.722;2023-07-20T12:02:33;99259.22;;;28.65
78905;BMP280;68291;49.602;8.722;2023-07-20T12:05:22;99262.16;;;28.76
78905;BMP280;68291;49.602;8.722;2023-07-20T12:08:00;99267.72;;;28.81
78905;BMP280;68291;49.602;8.722;2023-07-20T12:10:34;99261.09;;;28.92
78905;BMP280;68291;49.602;8.722;2023-07-20T12:13:38;99260.56;;;29.02
78905;BMP280;68291;49.602;8.722;2023-07-20T12:16:34;99257.69;;;29.18
78905;BMP280;68291;49.602;8.722;2023-07-20T12:19:26;99251.72;;;29.37
78905;BMP280;68291;49.602;8.722;2023-07-20T12:22:28;99251.41;;;29.53
78905;BMP280;68291;49.602;8.722;2023-07-20T12:25:11;99243.63;;;29.78
78905;BMP280;68291;49.602;8.722;2023-07-20T12:27:45;99245.81;;;30.08
78905;BMP280;68291;49.602;8.722;2023-07-20T12:30:35;99247.06;;;30.12
78905;BMP280;68291;49.602;8.722;2023-07-20T12:33:16;99238.19;;;29.93
78905;BMP280;68291;49.602;8.722;2023-07-20T12:36:13;99251.16;;;29.68
78905;BMP280;68291;49.602;8.722;2023-07-20T12:38:45;99242.63;;;29.52
78905;BMP280;68291;49.602;8.722;2023-07-20T12:41:16;99238.34;;;29.51
78905;BMP280;68291;49.602;8.722;2023-07-20T12:44:04;99237.91;;;29.48
78905;BMP280;68291;49.602;8.722;2023-07-20T12:46:49;99241.50;;;29.34
78905;BMP280;68291;49.602;8.722;2023-07-20T12:49:41;99240.56;;;29.21
78905;BMP280;68291;49.602;8.722;2023-07-20T12:52:24;99242.84;;;29.24
78905;BMP280;68291;49.602;8.722;2023-07-20T12:55:09;99242.72;;;29.31
78905;BMP280;68291;49.602;8.722;2023-07-20T12:57:47;99233.88;;;29.85
78905;BMP280;68291;49.602;8.722;2023-07-20T13:00:34;99216.97;;;30.58
78905;BMP280;68291;49.602;8.722;2023-07-20T13:03:19;99215.63;;;31.07
78905;BMP280;68291;49.602;8.722;2023-07-20T13:06:28;99219.72;;;31.41
78905;BMP280;68291;49.602;8.722;2023-07-20T13:09:20;99211.97;;;32.09
78905;BMP280;68291;49.602;8.722;2023-07-20T13:12:01;99205.66;;;32.78
78905;BMP280;68291;49.602;8.722;2023-07-20T13:14:44;99196.75;;;33.56
78905;BMP280;68291;49.602;8.722;2023-07-20T13:17:39;99192.72;;;34.36
78905;BMP280;68291;49.602;8.722;2023-07-20T13:20:20;99197.00;;;34.66
78905;BMP280;68291;49.602;8.722;2023-07-20T13:23:07;99191.28;;;34.91
78905;BMP280;68291;49.602;8.722;2023-07-20T13:25:38;99195.13;;;34.95
78905;BMP280;68291;49.602;8.722;2023-07-20T13:28:28;99196.31;;;34.99
78905;BMP280;68291;49.602;8.722;2023-07-20T13:31:17;99190.25;;;34.92
78905;BMP280;68291;49.602;8.722;2023-07-20T13:34:16;99195.03;;;34.61
78905;BMP280;68291;49.602;8.722;2023-07-20T13:37:06;99199.66;;;34.08
78905;BMP280;68291;49.602;8.722;2023-07-20T13:40:09;99184.75;;;33.23
78905;BMP280;68291;49.602;8.722;2023-07-20T13:42:58;99195.94;;;32.59
78905;BMP280;68291;49.602;8.722;2023-07-20T13:45:31;99190.88;;;32.08
78905;BMP280;68291;49.602;8.722;2023-07-20T13:48:25;99183.22;;;31.61
78905;BMP280;68291;49.602;8.722;2023-07-20T13:50:56;99194.53;;;31.38
78905;BMP280;68291;49.602;8.722;2023-07-20T13:53:29;99194.56;;;31.12
78905;BMP280;68291;49.602;8.722;2023-07-20T13:56:15;99193.50;;;30.68
78905;BMP280;68291;49.602;8.722;2023-07-20T13:58:54;99182.81;;;30.42
78905;BMP280;68291;49.602;8.722;2023-07-20T14:01:27;99180.56;;;30.33
78905;BMP280;68291;49.602;8.722;2023-07-20T14:04:11;99182.22;;;30.60
78905;BMP280;68291;49.602;8.722;2023-07-20T14:06:42;99169.59;;;30.81
78905;BMP280;68291;49.602;8.722;2023-07-20T14:09:36;99182.84;;;30.55
78905;BMP280;68291;49.602;8.722;2023-07-20T14:13:05;99183.09;;;30.01
78905;BMP280;68291;49.602;8.722;2023-07-20T14:15:44;99186.22;;;29.71
78905;BMP280;68291;49.602;8.722;2023-07-20T14:18:16;99182.63;;;29.51
78905;BMP280;68291;49.602;8.722;2023-07-20T14:21:00;99184.78;;;29.41
78905;BMP280;68291;49.602;8.722;2023-07-20T14:23:36;99170.44;;;29.29
78905;BMP280;68291;49.602;8.722;2023-07-20T14:26:06;99178.75;;;29.20
78905;BMP280;68291;49.602;8.722;2023-07-20T14:28:51;99174.25;;;29.21
78905;BMP280;68291;49.602;8.722;2023-07-20T14:31:25;99162.88;;;29.27
78905;BMP280;68291;49.602;8.722;2023-07-20T14:34:10;99158.50;;;29.46
78905;BMP280;68291;49.602;8.722;2023-07-20T14:36:59;99160.84;;;29.62
78905;BMP280;68291;49.602;8.722;2023-07-20T14:39:59;99145.91;;;29.61
78905;BMP280;68291;49.602;8.722;2023-07-20T14:42:34;99155.19;;;29.71
78905;BMP280;68291;49.602;8.722;2023-07-20T14:45:48;99154.38;;;29.71
78905;BMP280;68291;49.602;8.722;2023-07-20T14:48:40;99141.22;;;30.09
78905;BMP280;68291;49.602;8.722;2023-07-20T14:51:14;99146.03;;;30.39
78905;BMP280;68291;49.602;8.722;2023-07-20T14:53:47;99135.00;;;30.55
78905;BMP280;68291;49.602;8.722;2023-07-20T14:56:27;99139.72;;;30.85
78905;BMP280;68291;49.602;8.722;2023-07-20T14:59:13;99137.78;;;31.50
78905;BMP280;68291;49.602;8.722;2023-07-20T15:01:50;99129.00;;;32.36
78905;BMP280;68291;49.602;8.722;2023-07-20T15:04:25;99126.53;;;33.38
78905;BMP280;68291;49.602;8.722;2023-07-20T15:07:15;99126.56;;;34.31
78905;BMP280;68291;49.602;8.722;2023-07-20T15:10:16;99128.81;;;34.97
78905;BMP280;68291;49.602;8.722;2023-07-20T15:12:58;99127.63;;;34.93
78905;BMP280;68291;49.602;8.722;2023-07-20T15:15:54;99125.97;;;34.29
78905;BMP280;68291;49.602;8.722;2023-07-20T15:18:52;99130.53;;;33.64
78905;BMP280;68291;49.602;8.722;2023-07-20T15:21:42;99138.66;;;33.16
78905;BMP280;68291;49.602;8.722;2023-07-20T15:24:15;99125.56;;;32.90
78905;BMP280;68291;49.602;8.722;2023-07-20T15:26:57;99121.25;;;33.07
78905;BMP280;68291;49.602;8.722;2023-07-20T15:29:36;99105.28;;;33.25
78905;BMP280;68291;49.602;8.722;2023-07-20T15:32:09;99094.28;;;33.15
78905;BMP280;68291;49.602;8.722;2023-07-20T15:35:06;99107.47;;;33.34
78905;BMP280;68291;49.602;8.722;2023-07-20T15:37:56;99101.44;;;33.92
78905;BMP280;68291;49.602;8.722;2023-07-20T15:40:33;99096.75;;;34.57
78905;BMP280;68291;49.602;8.722;2023-07-20T15:43:15;99097.16;;;35.40
78905;BMP280;68291;49.602;8.722;2023-07-20T15:45:49;99091.47;;;36.03
78905;BMP280;68291;49.602;8.722;2023-07-20T15:48:26;99094.25;;;36.52
78905;BMP280;68291;49.602;8.722;2023-07-20T15:51:34;99069.97;;;37.07
78905;BMP280;68291;49.602;8.722;2023-07-20T15:54:20;99083.34;;;37.61